createdAt,value
2019-05-10T00:00:07.196Z,11.26
2019-05-10T00:02:52.381Z,11.25
2019-05-10T00:05:37.542Z,11.29
2019-05-10T00:08:23.150Z,11.36
2019-05-10T00:10:54.640Z,11.28
2019-05-10T00:13:22.719Z,11.25
2019-05-10T00:15:49.424Z,11.24
2019-05-10T00:18:16.099Z,11.28
2019-05-10T00:20:42.934Z,11.26
2019-05-10T00:23:09.707Z,11.25
2019-05-10T00:25:36.406Z,11.33
2019-05-10T00:28:03.649Z,11.35
2019-05-10T00:30:30.417Z,11.42
2019-05-10T00:32:57.099Z,11.40
2019-05-10T00:35:23.931Z,11.38
2019-05-10T00:37:50.610Z,11.30
2019-05-10T00:40:17.729Z,11.33
2019-05-10T00:42:44.288Z,11.48
2019-05-10T00:45:11.215Z,11.46
2019-05-10T00:47:37.797Z,11.57
2019-05-10T00:50:05.043Z,11.56
2019-05-10T00:52:31.819Z,11.59
2019-05-10T00:54:58.519Z,11.76
2019-05-10T00:57:25.291Z,11.81
2019-05-10T00:59:52.109Z,11.77
2019-05-10T01:02:18.790Z,11.60
2019-05-10T01:04:45.584Z,11.62
2019-05-10T01:07:12.283Z,11.50
2019-05-10T01:09:39.072Z,11.51
2019-05-10T01:12:05.881Z,11.47
2019-05-10T01:14:32.546Z,11.53
2019-05-10T01:16:59.327Z,11.41
2019-05-10T01:19:26.165Z,11.42
2019-05-10T01:21:52.953Z,11.36
2019-05-10T01:24:19.833Z,11.40
2019-05-10T01:26:46.667Z,11.50
2019-05-10T01:29:32.961Z,11.49
2019-05-10T01:31:59.770Z,11.53
2019-05-10T01:34:26.443Z,11.55
2019-05-10T01:36:53.413Z,11.58
2019-05-10T01:39:20.219Z,11.47
2019-05-10T01:41:46.906Z,11.36
2019-05-10T01:44:13.563Z,11.20
2019-05-10T01:46:40.245Z,11.02
2019-05-10T01:49:07.077Z,11.04
2019-05-10T01:51:33.666Z,11.03
2019-05-10T01:54:00.337Z,11.03
2019-05-10T01:56:27.116Z,11.06
2019-05-10T01:58:53.720Z,11.05
2019-05-10T02:01:20.472Z,11.11
2019-05-10T02:03:47.178Z,11.12
2019-05-10T02:06:13.965Z,11.09
2019-05-10T02:08:40.765Z,11.14
2019-05-10T02:11:07.552Z,11.12
2019-05-10T02:13:34.356Z,11.06
2019-05-10T02:16:01.104Z,11.04
2019-05-10T02:18:27.776Z,11.03
2019-05-10T02:20:54.518Z,11.11
2019-05-10T02:23:21.346Z,11.04
2019-05-10T02:25:48.005Z,11.03
2019-05-10T02:28:14.697Z,11.03
2019-05-10T02:30:41.261Z,10.99
2019-05-10T02:33:07.848Z,11.00
2019-05-10T02:35:34.521Z,11.04
2019-05-10T02:38:01.109Z,11.07
2019-05-10T02:40:27.897Z,11.05
2019-05-10T02:42:54.683Z,11.08
2019-05-10T02:45:21.462Z,11.07
2019-05-10T02:47:48.202Z,11.06
2019-05-10T02:50:15.127Z,11.05
2019-05-10T02:52:41.781Z,11.00
2019-05-10T02:55:08.788Z,11.04
2019-05-10T02:57:36.084Z,11.05
2019-05-10T03:00:04.742Z,11.10
2019-05-10T03:02:32.345Z,11.05
2019-05-10T03:04:59.502Z,11.11
2019-05-10T03:07:26.406Z,10.90
2019-05-10T03:09:53.147Z,10.87
2019-05-10T03:12:22.109Z,10.84
2019-05-10T03:14:52.183Z,10.83
2019-05-10T03:17:19.061Z,10.83
2019-05-10T03:19:47.442Z,10.79
2019-05-10T03:22:16.062Z,10.71
2019-05-10T03:24:42.722Z,10.60
2019-05-10T03:27:09.507Z,10.59
2019-05-10T03:29:36.141Z,10.44
2019-05-10T03:32:02.962Z,10.39
2019-05-10T03:34:30.022Z,10.36
2019-05-10T03:36:56.787Z,10.29
2019-05-10T03:39:23.570Z,10.18
2019-05-10T03:41:50.360Z,10.12
2019-05-10T03:44:17.060Z,10.07
2019-05-10T03:46:43.855Z,10.09
2019-05-10T03:49:10.631Z,9.99
2019-05-10T03:51:37.385Z,9.96
2019-05-10T03:54:04.076Z,9.95
2019-05-10T03:56:30.739Z,9.92
2019-05-10T03:58:57.424Z,9.87
2019-05-10T04:01:24.299Z,9.75
2019-05-10T04:03:50.980Z,9.75
2019-05-10T04:06:17.780Z,9.79
2019-05-10T04:08:44.631Z,9.87
2019-05-10T04:11:11.471Z,9.90
2019-05-10T04:13:38.134Z,10.01
2019-05-10T04:16:05.010Z,10.11
2019-05-10T04:18:31.615Z,10.23
2019-05-10T04:20:58.332Z,10.29
2019-05-10T04:23:25.135Z,10.36
2019-05-10T04:25:51.805Z,10.43
2019-05-10T04:28:18.478Z,10.42
2019-05-10T04:30:45.372Z,10.38
2019-05-10T04:33:11.940Z,10.44
2019-05-10T04:35:38.637Z,10.35
2019-05-10T04:38:05.341Z,10.36
2019-05-10T04:40:32.216Z,10.35
2019-05-10T04:42:58.992Z,10.37
2019-05-10T04:45:25.798Z,10.44
2019-05-10T04:47:52.605Z,10.50
2019-05-10T04:50:19.464Z,10.61
2019-05-10T04:52:46.017Z,10.64
2019-05-10T04:55:13.488Z,10.73
2019-05-10T04:57:49.945Z,10.84
2019-05-10T05:00:09.446Z,10.88
2019-05-10T05:02:36.117Z,10.89
2019-05-10T05:05:03.674Z,10.73
2019-05-10T05:07:30.356Z,10.81
2019-05-10T05:09:56.936Z,10.70
2019-05-10T05:12:23.734Z,10.77
2019-05-10T05:14:50.406Z,10.83
2019-05-10T05:17:17.191Z,10.93
2019-05-10T05:19:43.874Z,10.90
2019-05-10T05:22:10.597Z,10.85
2019-05-10T05:24:37.295Z,10.76
2019-05-10T05:27:04.070Z,10.84
2019-05-10T05:29:30.853Z,10.92
2019-05-10T05:32:01.393Z,11.00
2019-05-10T05:34:26.258Z,11.08
2019-05-10T05:36:53.020Z,10.98
2019-05-10T05:39:19.795Z,11.06
2019-05-10T05:41:51.740Z,11.02
2019-05-10T05:44:15.217Z,11.08
2019-05-10T05:46:41.966Z,11.26
2019-05-10T05:49:08.664Z,11.17
2019-05-10T05:51:35.328Z,11.39
2019-05-10T05:54:04.136Z,11.57
2019-05-10T05:56:30.733Z,11.46
2019-05-10T05:58:57.472Z,11.44
2019-05-10T06:01:29.182Z,11.56
2019-05-10T06:03:52.629Z,11.78
2019-05-10T06:06:23.584Z,12.00
2019-05-10T06:08:48.055Z,12.12
2019-05-10T06:11:14.764Z,12.24
2019-05-10T06:13:41.534Z,11.75
2019-05-10T06:16:12.864Z,11.65
2019-05-10T06:18:41.513Z,11.72
2019-05-10T06:21:05.481Z,11.61
2019-05-10T06:23:34.992Z,11.58
2019-05-10T06:26:00.732Z,11.54
2019-05-10T06:28:56.502Z,11.27
2019-05-10T06:30:56.088Z,11.16
2019-05-10T06:33:22.861Z,11.19
2019-05-10T06:35:49.646Z,10.97
2019-05-10T06:38:16.311Z,10.90
2019-05-10T06:40:47.078Z,10.82
2019-05-10T06:43:13.281Z,10.86
2019-05-10T06:45:40.247Z,10.97
2019-05-10T06:48:07.013Z,10.95
2019-05-10T06:50:33.589Z,10.78
2019-05-10T06:53:06.671Z,10.84
2019-05-10T06:55:28.945Z,10.79
2019-05-10T06:57:59.122Z,10.81
2019-05-10T07:00:24.218Z,10.81
2019-05-10T07:02:51.048Z,10.76
2019-05-10T07:05:17.780Z,10.67
2019-05-10T07:07:45.544Z,10.73
2019-05-10T07:10:18.577Z,10.73
2019-05-10T07:12:41.433Z,10.73
2019-05-10T07:15:08.780Z,10.62
2019-05-10T07:17:40.907Z,10.75
2019-05-10T07:20:04.349Z,10.67
2019-05-10T07:22:30.930Z,10.82
2019-05-10T07:25:04.120Z,10.71
2019-05-10T07:27:26.153Z,10.78
2019-05-10T07:29:52.969Z,10.71
2019-05-10T07:32:22.176Z,10.71
2019-05-10T07:34:58.287Z,10.77
2019-05-10T07:37:17.294Z,10.78
2019-05-10T07:39:44.363Z,10.84
2019-05-10T07:42:11.093Z,10.84
2019-05-10T07:44:41.404Z,10.81
2019-05-10T07:47:06.434Z,10.80
2019-05-10T07:49:33.156Z,10.71
2019-05-10T07:52:02.245Z,10.67
2019-05-10T07:54:28.407Z,10.66
2019-05-10T07:56:55.176Z,10.64
2019-05-10T07:59:28.009Z,10.70
2019-05-10T08:01:50.481Z,10.72
2019-05-10T08:04:19.714Z,10.61
2019-05-10T08:06:48.712Z,10.75
2019-05-10T08:09:14.392Z,10.89
2019-05-10T08:11:41.061Z,10.86
2019-05-10T08:14:10.987Z,10.95
2019-05-10T08:16:38.617Z,11.04
2019-05-10T08:19:06.448Z,11.01
2019-05-10T08:21:33.165Z,11.03
2019-05-10T08:24:05.216Z,10.91
2019-05-10T08:26:28.980Z,11.03
2019-05-10T08:28:55.751Z,11.10
2019-05-10T08:31:25.920Z,11.31
2019-05-10T08:33:58.351Z,11.48
2019-05-10T08:36:21.935Z,11.47
2019-05-10T08:38:59.342Z,11.37
2019-05-10T08:41:18.455Z,11.27
2019-05-10T08:43:45.468Z,11.16
2019-05-10T08:46:12.216Z,10.73
2019-05-10T08:48:46.641Z,10.80
2019-05-10T08:51:07.831Z,10.77
2019-05-10T08:53:34.530Z,10.93
2019-05-10T08:56:02.255Z,11.25
2019-05-10T08:58:36.744Z,11.36
2019-05-10T09:01:15.532Z,11.62
2019-05-10T09:03:27.621Z,11.95
2019-05-10T09:05:54.418Z,12.15
2019-05-10T09:08:24.411Z,12.44
2019-05-10T09:10:49.784Z,12.68
2019-05-10T09:13:16.728Z,12.76
2019-05-10T09:15:51.761Z,13.06
2019-05-10T09:18:12.873Z,13.29
2019-05-10T09:20:42.014Z,13.37
2019-05-10T09:23:14.272Z,13.10
2019-05-10T09:25:37.395Z,13.21
2019-05-10T09:28:11.739Z,13.39
2019-05-10T09:30:35.620Z,13.86
2019-05-10T09:33:08.605Z,13.55
2019-05-10T09:35:33.006Z,13.09
2019-05-10T09:38:01.782Z,13.05
2019-05-10T09:40:28.537Z,12.92
2019-05-10T09:42:59.389Z,13.27
2019-05-10T09:45:24.339Z,13.32
2019-05-10T09:47:53.002Z,13.28
2019-05-10T09:50:22.786Z,13.29
2019-05-10T09:52:48.999Z,13.08
2019-05-10T09:55:17.570Z,13.82
2019-05-10T09:57:44.564Z,14.46
2019-05-10T10:00:12.040Z,14.07
2019-05-10T10:02:40.689Z,14.13
2019-05-10T10:05:08.470Z,13.55
2019-05-10T10:07:37.357Z,13.22
2019-05-10T10:10:07.149Z,12.71
2019-05-10T10:12:33.333Z,12.70
2019-05-10T10:15:00.193Z,12.77
2019-05-10T10:17:27.479Z,12.45
2019-05-10T10:19:57.711Z,11.77
2019-05-10T10:22:24.089Z,12.29
2019-05-10T10:24:54.976Z,12.49
2019-05-10T10:27:19.363Z,12.47
2019-05-10T10:29:47.516Z,12.47
2019-05-10T10:32:14.511Z,12.73
2019-05-10T10:34:43.216Z,13.03
2019-05-10T10:37:14.683Z,13.57
2019-05-10T10:39:38.261Z,14.07
2019-05-10T10:42:08.738Z,14.08
2019-05-10T10:44:33.614Z,15.12
2019-05-10T10:47:00.184Z,16.38
2019-05-10T10:49:27.963Z,16.77
2019-05-10T10:51:57.408Z,17.84
2019-05-10T10:54:28.654Z,17.62
2019-05-10T10:56:52.604Z,18.99
2019-05-10T10:59:19.280Z,21.04
2019-05-10T11:01:51.976Z,22.38
2019-05-10T11:04:16.440Z,21.88
2019-05-10T11:06:43.507Z,20.77
2019-05-10T11:09:10.486Z,18.34
2019-05-10T11:11:41.262Z,17.76
2019-05-10T11:14:07.547Z,17.35
2019-05-10T11:16:34.560Z,17.15
2019-05-10T11:19:03.566Z,17.70
2019-05-10T11:21:32.903Z,17.13
2019-05-10T11:24:01.259Z,15.41
2019-05-10T11:26:32.769Z,14.93
2019-05-10T11:28:55.994Z,13.98
2019-05-10T11:31:22.793Z,14.16
2019-05-10T11:33:53.610Z,14.44
2019-05-10T11:36:18.150Z,15.00
2019-05-10T11:38:51.977Z,16.35
2019-05-10T11:41:20.654Z,16.92
2019-05-10T11:43:42.042Z,16.64
2019-05-10T11:46:08.964Z,17.07
2019-05-10T11:48:37.304Z,16.59
2019-05-10T11:51:05.774Z,16.45
2019-05-10T11:53:32.989Z,17.07
2019-05-10T11:56:02.009Z,18.04
2019-05-10T11:58:30.871Z,18.23
2019-05-10T12:01:02.436Z,17.00
2019-05-10T12:03:25.760Z,18.80
2019-05-10T12:06:04.366Z,20.31
2019-05-10T12:08:22.354Z,23.16
2019-05-10T12:10:59.390Z,26.01
2019-05-10T12:13:20.822Z,27.52
2019-05-10T12:15:46.443Z,26.70
2019-05-10T12:18:14.681Z,25.23
2019-05-10T12:20:55.893Z,21.95
2019-05-10T12:23:13.287Z,22.20
2019-05-10T12:25:53.094Z,22.69
2019-05-10T12:28:07.625Z,21.94
2019-05-10T12:30:34.889Z,23.28
2019-05-10T12:33:08.824Z,23.42
2019-05-10T12:35:39.835Z,21.44
2019-05-10T12:38:01.685Z,22.28
2019-05-10T12:40:31.310Z,20.95
2019-05-10T12:42:57.342Z,22.54
2019-05-10T12:45:24.117Z,22.11
2019-05-10T12:47:51.854Z,22.10
2019-05-10T12:50:19.267Z,21.53
2019-05-10T12:52:53.539Z,22.40
2019-05-10T12:55:14.852Z,20.93
2019-05-10T12:57:43.456Z,20.63
2019-05-10T13:00:13.288Z,20.21
2019-05-10T13:02:39.187Z,20.38
2019-05-10T13:05:06.175Z,20.61
2019-05-10T13:07:36.627Z,18.87
2019-05-10T13:10:06.166Z,18.55
2019-05-10T13:12:30.266Z,19.04
2019-05-10T13:14:57.049Z,20.30
2019-05-10T13:17:23.914Z,18.75
2019-05-10T13:19:52.880Z,18.65
2019-05-10T13:22:19.469Z,18.04
2019-05-10T13:24:46.230Z,17.75
2019-05-10T13:27:13.033Z,17.89
2019-05-10T13:29:40.556Z,17.66
2019-05-10T13:32:08.365Z,17.26
2019-05-10T13:34:34.920Z,17.28
2019-05-10T13:37:01.702Z,18.84
2019-05-10T13:39:28.479Z,18.63
2019-05-10T13:41:57.219Z,19.08
2019-05-10T13:44:23.887Z,19.13
2019-05-10T13:46:50.678Z,20.42
2019-05-10T13:49:17.605Z,21.35
2019-05-10T13:51:44.396Z,22.11
2019-05-10T13:54:11.143Z,24.56
2019-05-10T13:56:45.288Z,24.05
2019-05-10T13:59:15.344Z,22.00
2019-05-10T14:01:35.270Z,20.28
2019-05-10T14:04:03.570Z,21.44
2019-05-10T14:06:30.318Z,20.79
2019-05-10T14:08:56.912Z,21.12
2019-05-10T14:11:23.708Z,20.16
2019-05-10T14:13:50.480Z,18.90
2019-05-10T14:16:19.508Z,18.91
2019-05-10T14:18:45.874Z,20.01
2019-05-10T14:21:12.555Z,20.55
2019-05-10T14:23:39.336Z,20.46
2019-05-10T14:26:09.114Z,18.83
2019-05-10T14:28:34.757Z,19.75
2019-05-10T14:31:01.343Z,20.85
2019-05-10T14:33:28.120Z,21.54
2019-05-10T14:36:00.312Z,19.69
2019-05-10T14:38:23.393Z,20.89
2019-05-10T14:40:50.191Z,20.50
2019-05-10T14:43:16.776Z,20.50
2019-05-10T14:45:43.538Z,21.11
2019-05-10T14:48:10.337Z,19.35
2019-05-10T14:50:37.053Z,20.01
2019-05-10T14:53:10.818Z,20.52
2019-05-10T14:55:37.486Z,22.42
2019-05-10T14:58:04.275Z,21.61
2019-05-10T15:00:31.099Z,20.77
2019-05-10T15:03:02.267Z,19.30
2019-05-10T15:05:26.456Z,18.90
2019-05-10T15:07:53.042Z,18.55
2019-05-10T15:10:19.710Z,17.89
2019-05-10T15:12:46.398Z,16.97
2019-05-10T15:15:13.256Z,17.34
2019-05-10T15:17:39.950Z,16.92
2019-05-10T15:20:06.726Z,16.68
2019-05-10T15:22:33.422Z,16.61
2019-05-10T15:25:00.189Z,16.67
2019-05-10T15:27:26.976Z,16.21
2019-05-10T15:29:58.738Z,16.37
2019-05-10T15:32:22.133Z,16.19
2019-05-10T15:35:05.607Z,16.44
2019-05-10T15:37:17.908Z,16.47
2019-05-10T15:39:44.881Z,16.56
2019-05-10T15:42:11.687Z,16.91
2019-05-10T15:44:38.459Z,16.74
2019-05-10T15:47:05.704Z,16.20
2019-05-10T15:49:32.448Z,15.92
2019-05-10T15:52:16.336Z,15.58
2019-05-10T15:54:27.923Z,14.78
2019-05-10T15:56:55.552Z,14.90
2019-05-10T15:59:22.647Z,16.02
2019-05-10T16:01:49.313Z,16.28
2019-05-10T16:04:15.996Z,17.72
2019-05-10T16:06:43.469Z,18.07
2019-05-10T16:09:17.590Z,17.84
2019-05-10T16:11:38.972Z,17.87
2019-05-10T16:14:05.792Z,17.10
2019-05-10T16:16:36.980Z,17.12
2019-05-10T16:19:01.134Z,17.36
2019-05-10T16:21:27.932Z,17.79
2019-05-10T16:23:54.719Z,16.96
2019-05-10T16:26:22.874Z,15.92
2019-05-10T16:28:53.219Z,15.72
2019-05-10T16:31:19.352Z,15.75
2019-05-10T16:33:48.148Z,15.85
2019-05-10T16:36:14.586Z,15.78
2019-05-10T16:38:41.293Z,15.80
2019-05-10T16:41:08.060Z,15.27
2019-05-10T16:43:34.662Z,15.12
2019-05-10T16:46:01.453Z,15.21
2019-05-10T16:48:28.535Z,15.36
2019-05-10T16:50:55.569Z,15.24
2019-05-10T16:53:22.394Z,14.86
2019-05-10T16:55:49.077Z,14.87
2019-05-10T16:58:17.956Z,14.87
2019-05-10T17:00:46.169Z,14.88
2019-05-10T17:03:18.334Z,14.90
2019-05-10T17:05:52.967Z,14.73
2019-05-10T17:08:10.718Z,14.74
2019-05-10T17:10:37.492Z,14.61
2019-05-10T17:13:06.546Z,14.67
2019-05-10T17:15:33.766Z,14.76
2019-05-10T17:18:01.636Z,14.90
2019-05-10T17:20:28.489Z,15.02
2019-05-10T17:23:01.535Z,14.99
2019-05-10T17:25:24.111Z,15.16
2019-05-10T17:27:57.745Z,15.05
2019-05-10T17:30:22.175Z,15.18
2019-05-10T17:32:48.289Z,15.27
2019-05-10T17:35:15.061Z,15.22
2019-05-10T17:37:41.817Z,14.89
2019-05-10T17:40:10.631Z,14.92
2019-05-10T17:42:41.341Z,14.80
2019-05-10T17:45:07.054Z,14.78
2019-05-10T17:47:33.851Z,14.53
2019-05-10T17:50:00.719Z,14.46
2019-05-10T17:52:27.422Z,14.55
2019-05-10T17:54:54.110Z,14.51
2019-05-10T17:57:20.775Z,14.53
2019-05-10T17:59:52.785Z,14.57
2019-05-10T18:02:16.166Z,14.73
2019-05-10T18:04:42.897Z,14.78
2019-05-10T18:07:09.581Z,14.90
2019-05-10T18:09:36.260Z,14.75
2019-05-10T18:12:03.030Z,14.76
2019-05-10T18:14:29.800Z,14.88
2019-05-10T18:16:56.459Z,14.99
2019-05-10T18:19:24.580Z,14.84
2019-05-10T18:21:54.978Z,14.96
2019-05-10T18:24:20.474Z,14.93
2019-05-10T18:26:47.160Z,14.72
2019-05-10T18:29:13.855Z,14.45
2019-05-10T18:31:40.530Z,14.18
2019-05-10T18:34:07.243Z,13.88
2019-05-10T18:36:51.075Z,13.73
2019-05-10T18:39:09.082Z,13.50
2019-05-10T18:41:33.547Z,13.19
2019-05-10T18:44:00.312Z,12.97
2019-05-10T18:46:27.120Z,12.74
2019-05-10T18:48:53.698Z,12.68
2019-05-10T18:51:24.529Z,12.58
2019-05-10T18:53:49.103Z,12.56
2019-05-10T18:56:15.976Z,12.58
2019-05-10T18:58:42.554Z,12.58
2019-05-10T19:01:09.359Z,12.53
2019-05-10T19:03:36.035Z,12.51
2019-05-10T19:06:10.426Z,12.44
2019-05-10T19:08:31.548Z,12.36
2019-05-10T19:10:58.438Z,12.31
2019-05-10T19:13:25.514Z,12.09
2019-05-10T19:15:57.773Z,11.96
2019-05-10T19:18:23.287Z,11.91
2019-05-10T19:20:53.473Z,11.89
2019-05-10T19:23:19.505Z,11.97
2019-05-10T19:25:51.872Z,11.93
2019-05-10T19:28:21.081Z,11.78
2019-05-10T19:30:44.403Z,11.71
2019-05-10T19:33:11.070Z,11.61
2019-05-10T19:35:38.010Z,11.52
2019-05-10T19:38:04.844Z,11.47
2019-05-10T19:40:34.420Z,11.41
2019-05-10T19:43:01.156Z,11.44
2019-05-10T19:45:31.102Z,11.43
2019-05-10T19:47:57.231Z,11.37
2019-05-10T19:50:31.071Z,11.35
2019-05-10T19:52:52.848Z,11.38
2019-05-10T19:55:21.679Z,11.36
2019-05-10T19:57:49.616Z,11.30
2019-05-10T20:00:19.393Z,11.24
2019-05-10T20:02:46.182Z,11.31
2019-05-10T20:05:13.173Z,11.27
2019-05-10T20:07:45.869Z,11.29
2019-05-10T20:10:09.028Z,11.34
2019-05-10T20:12:35.594Z,11.31
2019-05-10T20:15:02.471Z,11.29
2019-05-10T20:17:29.516Z,11.42
2019-05-10T20:19:56.265Z,11.38
2019-05-10T20:22:22.844Z,11.34
2019-05-10T20:24:49.411Z,11.29
2019-05-10T20:27:16.105Z,11.18
2019-05-10T20:29:42.886Z,11.06
2019-05-10T20:32:09.679Z,11.07
2019-05-10T20:34:36.257Z,11.06
2019-05-10T20:37:03.152Z,10.99
2019-05-10T20:39:30.099Z,11.06
2019-05-10T20:41:56.970Z,11.04
2019-05-10T20:44:23.714Z,10.96
2019-05-10T20:46:50.463Z,10.80
2019-05-10T20:49:17.322Z,10.76
2019-05-10T20:51:44.154Z,10.67
2019-05-10T20:54:10.849Z,10.56
2019-05-10T20:56:37.527Z,10.51
2019-05-10T20:59:04.291Z,10.44
2019-05-10T21:01:30.984Z,10.35
2019-05-10T21:03:57.654Z,10.21
2019-05-10T21:06:24.336Z,10.06
2019-05-10T21:08:51.186Z,10.10
2019-05-10T21:11:18.055Z,9.96
2019-05-10T21:13:44.839Z,9.84
2019-05-10T21:16:11.547Z,9.87
2019-05-10T21:18:38.359Z,9.80
2019-05-10T21:21:05.034Z,9.73
2019-05-10T21:23:31.705Z,9.74
2019-05-10T21:25:58.421Z,9.69
2019-05-10T21:28:25.100Z,9.76
2019-05-10T21:30:53.649Z,9.83
2019-05-10T21:33:20.623Z,9.85
2019-05-10T21:35:47.338Z,9.84
2019-05-10T21:38:14.278Z,9.91
2019-05-10T21:40:41.494Z,9.98
2019-05-10T21:43:08.443Z,10.03
2019-05-10T21:45:35.204Z,10.07
2019-05-10T21:48:01.996Z,10.06
2019-05-10T21:50:28.717Z,10.20
2019-05-10T21:52:55.362Z,10.36
2019-05-10T21:55:21.927Z,10.20
2019-05-10T21:57:48.739Z,10.25
2019-05-10T22:00:16.713Z,10.19
2019-05-10T22:02:43.511Z,10.17
2019-05-10T22:05:10.290Z,10.14
2019-05-10T22:07:37.077Z,10.04
2019-05-10T22:10:04.200Z,9.96
2019-05-10T22:12:31.194Z,9.87
2019-05-10T22:14:57.864Z,9.83
2019-05-10T22:17:24.580Z,9.86
2019-05-10T22:19:51.209Z,9.83
2019-05-10T22:22:17.892Z,9.75
2019-05-10T22:24:44.546Z,9.73
2019-05-10T22:27:11.421Z,9.73
2019-05-10T22:29:38.304Z,9.72
2019-05-10T22:32:05.089Z,9.81
2019-05-10T22:34:31.762Z,9.83
2019-05-10T22:36:58.443Z,9.88
2019-05-10T22:39:25.144Z,9.87
2019-05-10T22:41:53.169Z,9.92
2019-05-10T22:44:20.129Z,9.93
2019-05-10T22:46:46.840Z,9.92
2019-05-10T22:49:13.511Z,9.97
2019-05-10T22:51:40.205Z,10.10
2019-05-10T22:54:06.893Z,10.08
2019-05-10T22:56:33.609Z,10.08
2019-05-10T22:59:00.234Z,9.98
2019-05-10T23:01:27.520Z,9.92
2019-05-10T23:03:54.213Z,9.98
2019-05-10T23:06:21.051Z,9.88
2019-05-10T23:08:47.620Z,9.72
2019-05-10T23:11:14.342Z,9.63
2019-05-10T23:13:41.222Z,9.64
2019-05-10T23:16:07.919Z,9.62
2019-05-10T23:18:34.597Z,9.46
2019-05-10T23:21:01.317Z,9.42
2019-05-10T23:23:28.001Z,9.27
2019-05-10T23:25:54.928Z,9.19
2019-05-10T23:28:21.610Z,9.14
2019-05-10T23:30:48.341Z,9.17
2019-05-10T23:33:15.120Z,9.19
2019-05-10T23:35:41.803Z,9.24
2019-05-10T23:38:08.487Z,9.24
2019-05-10T23:40:35.179Z,9.31
2019-05-10T23:43:01.913Z,9.41
2019-05-10T23:45:28.669Z,9.45
2019-05-10T23:47:55.258Z,9.41
2019-05-10T23:50:21.926Z,9.28
2019-05-10T23:52:48.498Z,9.18
2019-05-10T23:55:15.268Z,9.19
2019-05-10T23:57:42.102Z,9.23
